createdAt,value
2022-09-12T00:00:04.474Z,48.66
2022-09-12T00:01:04.654Z,51.72
2022-09-12T00:02:05.290Z,59.78
2022-09-12T00:03:04.978Z,74.44
2022-09-12T00:04:05.100Z,48.98
2022-09-12T00:05:05.253Z,48.66
2022-09-12T00:06:06.255Z,48.66
2022-09-12T00:07:06.255Z,48.34
2022-09-12T00:08:06.253Z,48.50
2022-09-12T00:09:05.884Z,49.79
2022-09-12T00:10:06.067Z,59.62
2022-09-12T00:11:06.266Z,49.31
2022-09-12T00:12:06.413Z,48.82
2022-09-12T00:13:08.254Z,49.31
2022-09-12T00:14:06.720Z,54.62
2022-09-12T00:15:06.860Z,48.98
2022-09-12T00:16:07.071Z,48.82
2022-09-12T00:17:07.271Z,62.68
2022-09-12T00:18:07.397Z,76.86
2022-09-12T00:19:09.258Z,49.31
2022-09-12T00:20:07.722Z,58.49
2022-09-12T00:21:08.757Z,48.98
2022-09-12T00:22:08.017Z,60.75
2022-09-12T00:23:08.139Z,77.34
2022-09-12T00:24:08.274Z,49.79
2022-09-12T00:25:08.445Z,49.47
2022-09-12T00:26:08.586Z,50.27
2022-09-12T00:27:08.732Z,50.11
2022-09-12T00:28:08.855Z,48.98
2022-09-12T00:29:08.990Z,50.92
2022-09-12T00:30:09.164Z,49.47
2022-09-12T00:31:09.295Z,49.15
2022-09-12T00:32:10.263Z,49.15
2022-09-12T00:33:09.633Z,61.87
2022-09-12T00:34:09.797Z,83.95
2022-09-12T00:35:09.933Z,49.31
2022-09-12T00:36:10.106Z,49.47
2022-09-12T00:37:10.256Z,50.43
2022-09-12T00:38:10.409Z,76.70
2022-09-12T00:39:10.593Z,75.09
2022-09-12T00:40:10.794Z,53.82
2022-09-12T00:41:10.963Z,50.11
2022-09-12T00:42:11.284Z,50.60
2022-09-12T00:43:11.324Z,52.69
2022-09-12T00:44:11.476Z,49.79
2022-09-12T00:45:11.651Z,57.52
2022-09-12T00:46:11.827Z,55.75
2022-09-12T00:47:11.964Z,72.19
2022-09-12T00:48:12.765Z,53.01
2022-09-12T00:49:12.268Z,49.79
2022-09-12T00:50:13.270Z,51.72
2022-09-12T00:51:12.664Z,53.82
2022-09-12T00:52:13.767Z,55.75
2022-09-12T00:53:13.030Z,73.80
2022-09-12T00:54:13.178Z,74.12
2022-09-12T00:55:13.346Z,56.56
2022-09-12T00:56:13.519Z,52.69
2022-09-12T00:57:13.703Z,54.30
2022-09-12T00:58:13.875Z,52.53
2022-09-12T00:59:14.769Z,51.56
2022-09-12T01:00:14.769Z,55.91
2022-09-12T01:01:14.406Z,50.92
2022-09-12T01:02:14.593Z,77.02
2022-09-12T01:03:14.661Z,55.91
2022-09-12T01:04:14.838Z,74.60
2022-09-12T01:05:15.775Z,62.84
2022-09-12T01:06:15.160Z,55.75
2022-09-12T01:07:15.781Z,54.79
2022-09-12T01:08:15.783Z,54.46
2022-09-12T01:09:16.269Z,54.79
2022-09-12T01:10:15.890Z,56.40
2022-09-12T01:11:16.775Z,62.04
2022-09-12T01:12:16.777Z,71.54
2022-09-12T01:13:16.785Z,71.38
2022-09-12T01:14:16.446Z,73.96
2022-09-12T01:15:17.295Z,51.72
2022-09-12T01:16:17.804Z,58.17
2022-09-12T01:17:16.968Z,74.93
2022-09-12T01:18:17.174Z,59.14
2022-09-12T01:19:17.791Z,75.73
2022-09-12T01:20:17.571Z,73.48
2022-09-12T01:21:17.736Z,74.60
2022-09-12T01:22:17.911Z,70.90
2022-09-12T01:23:18.064Z,76.70
2022-09-12T01:24:18.291Z,73.48
2022-09-12T01:25:18.497Z,74.28
2022-09-12T01:26:18.642Z,53.98
2022-09-12T01:27:18.781Z,56.40
2022-09-12T01:28:18.925Z,55.59
2022-09-12T01:29:19.086Z,63.16
2022-09-12T01:30:19.250Z,53.66
2022-09-12T01:31:19.449Z,65.58
2022-09-12T01:32:20.308Z,78.47
2022-09-12T01:33:19.811Z,74.60
2022-09-12T01:34:19.946Z,51.88
2022-09-12T01:35:20.088Z,74.44
2022-09-12T01:36:20.243Z,51.56
2022-09-12T01:37:20.408Z,51.72
2022-09-12T01:38:20.536Z,51.24
2022-09-12T01:39:21.288Z,51.72
2022-09-12T01:40:20.890Z,49.95
2022-09-12T01:41:21.306Z,75.73
2022-09-12T01:42:21.778Z,56.88
2022-09-12T01:43:22.281Z,51.88
2022-09-12T01:44:21.658Z,79.28
2022-09-12T01:45:22.972Z,52.53
2022-09-12T01:46:22.296Z,78.31
2022-09-12T01:47:22.192Z,52.85
2022-09-12T01:48:22.365Z,50.92
2022-09-12T01:49:22.509Z,71.38
2022-09-12T01:50:22.659Z,52.53
2022-09-12T01:51:22.822Z,48.50
2022-09-12T01:52:22.967Z,48.66
2022-09-12T01:53:23.143Z,48.18
2022-09-12T01:54:23.308Z,48.82
2022-09-12T01:55:23.463Z,68.80
2022-09-12T01:56:23.641Z,49.63
2022-09-12T01:57:23.815Z,49.31
2022-09-12T01:58:23.963Z,49.31
2022-09-12T01:59:24.106Z,49.15
2022-09-12T02:00:24.267Z,48.82
2022-09-12T02:01:24.485Z,68.00
2022-09-12T02:02:24.615Z,74.60
2022-09-12T02:03:24.780Z,79.60
2022-09-12T02:04:24.935Z,57.36
2022-09-12T02:05:25.786Z,72.67
2022-09-12T02:06:25.275Z,73.64
2022-09-12T02:07:25.452Z,77.02
2022-09-12T02:08:25.604Z,75.41
2022-09-12T02:09:26.285Z,76.86
2022-09-12T02:10:30.369Z,72.67
2022-09-12T02:11:28.083Z,54.30
2022-09-12T02:12:26.786Z,73.48
2022-09-12T02:13:27.293Z,83.31
2022-09-12T02:14:26.460Z,78.31
2022-09-12T02:15:26.640Z,76.70
2022-09-12T02:16:27.343Z,79.44
2022-09-12T02:17:26.976Z,59.62
2022-09-12T02:18:27.110Z,77.67
2022-09-12T02:19:27.277Z,76.22
2022-09-12T02:20:46.806Z,71.38
2022-09-12T02:21:29.661Z,77.67
2022-09-12T02:22:28.303Z,77.50
2022-09-12T02:23:27.938Z,73.64
2022-09-12T02:24:28.078Z,60.91
2022-09-12T02:25:28.232Z,55.75
2022-09-12T02:26:28.381Z,72.19
2022-09-12T02:27:28.809Z,77.83
2022-09-12T02:28:28.701Z,77.83
2022-09-12T02:29:28.854Z,74.44
2022-09-12T02:30:29.051Z,77.18
2022-09-12T02:31:29.792Z,72.51
2022-09-12T02:32:29.427Z,73.96
2022-09-12T02:33:29.586Z,76.38
2022-09-12T02:34:29.706Z,51.24
2022-09-12T02:35:29.830Z,50.76
2022-09-12T02:36:31.094Z,73.15
2022-09-12T02:37:30.199Z,70.25
2022-09-12T02:38:30.445Z,73.64
2022-09-12T02:39:30.575Z,77.99
2022-09-12T02:40:31.296Z,79.60
2022-09-12T02:41:30.915Z,72.99
2022-09-12T02:42:31.027Z,76.70
2022-09-12T02:43:31.264Z,72.51
2022-09-12T02:44:31.412Z,68.64
2022-09-12T02:45:31.587Z,74.44
2022-09-12T02:46:31.780Z,79.28
2022-09-12T02:47:31.911Z,76.22
2022-09-12T02:48:32.063Z,73.32
2022-09-12T02:49:32.213Z,79.44
2022-09-12T02:50:32.366Z,79.60
2022-09-12T02:51:32.512Z,79.28
2022-09-12T02:52:32.664Z,77.50
2022-09-12T02:53:32.835Z,77.34
2022-09-12T02:54:33.016Z,74.77
2022-09-12T02:55:33.169Z,77.83
2022-09-12T02:56:33.333Z,77.99
2022-09-12T02:57:33.495Z,72.99
2022-09-12T02:58:33.679Z,74.77
2022-09-12T02:59:33.857Z,77.99
2022-09-12T03:00:34.803Z,69.13
2022-09-12T03:01:34.211Z,80.73
2022-09-12T03:02:34.381Z,86.37
2022-09-12T03:03:35.307Z,76.38
2022-09-12T03:04:34.715Z,68.48
2022-09-12T03:05:35.826Z,77.18
2022-09-12T03:06:35.809Z,79.12
2022-09-12T03:07:35.813Z,78.31
2022-09-12T03:08:35.353Z,79.12
2022-09-12T03:09:36.310Z,78.79
2022-09-12T03:10:35.648Z,77.34
2022-09-12T03:11:35.782Z,80.08
2022-09-12T03:12:35.910Z,82.18
2022-09-12T03:13:36.145Z,79.76
2022-09-12T03:14:36.391Z,78.79
2022-09-12T03:15:36.518Z,78.96
2022-09-12T03:16:36.700Z,80.73
2022-09-12T03:17:36.844Z,77.34
2022-09-12T03:18:36.952Z,81.53
2022-09-12T03:19:37.190Z,79.76
2022-09-12T03:20:37.430Z,78.15
2022-09-12T03:21:37.555Z,77.99
2022-09-12T03:22:37.823Z,80.57
2022-09-12T03:23:37.954Z,79.92
2022-09-12T03:24:38.082Z,77.99
2022-09-12T03:25:38.230Z,77.83
2022-09-12T03:26:38.361Z,79.44
2022-09-12T03:27:38.511Z,77.18
2022-09-12T03:28:39.324Z,76.70
2022-09-12T03:29:39.312Z,80.24
2022-09-12T03:30:38.939Z,77.67
2022-09-12T03:31:39.075Z,79.92
2022-09-12T03:32:39.330Z,78.79
2022-09-12T03:33:40.473Z,81.53
2022-09-12T03:34:39.563Z,76.38
2022-09-12T03:35:39.693Z,78.96
2022-09-12T03:36:40.318Z,76.05
2022-09-12T03:37:40.053Z,83.47
2022-09-12T03:38:40.187Z,80.08
2022-09-12T03:39:40.426Z,80.73
2022-09-12T03:40:41.311Z,78.63
2022-09-12T03:41:40.770Z,78.31
2022-09-12T03:42:41.017Z,81.05
2022-09-12T03:43:41.178Z,82.98
2022-09-12T03:44:41.315Z,78.96
2022-09-12T03:45:41.459Z,80.08
2022-09-12T03:46:41.615Z,78.15
2022-09-12T03:47:41.742Z,80.73
2022-09-12T03:48:42.048Z,78.63
2022-09-12T03:49:42.219Z,77.50
2022-09-12T03:50:42.343Z,81.53
2022-09-12T03:51:42.474Z,78.96
2022-09-12T03:52:42.642Z,77.99
2022-09-12T03:53:42.771Z,79.76
2022-09-12T03:54:42.916Z,76.70
2022-09-12T03:55:43.029Z,77.67
2022-09-12T03:56:43.155Z,80.57
2022-09-12T03:57:43.280Z,78.96
2022-09-12T03:58:43.403Z,78.79
2022-09-12T03:59:43.550Z,77.18
2022-09-12T04:00:43.664Z,77.34
2022-09-12T04:01:43.792Z,78.15
2022-09-12T04:02:44.027Z,79.44
2022-09-12T04:03:44.177Z,79.76
2022-09-12T04:04:44.820Z,80.08
2022-09-12T04:05:44.415Z,78.63
2022-09-12T04:06:44.679Z,78.15
2022-09-12T04:07:45.319Z,77.99
2022-09-12T04:08:45.163Z,77.18
2022-09-12T04:09:45.168Z,77.83
2022-09-12T04:10:46.952Z,77.34
2022-09-12T04:11:45.512Z,76.38
2022-09-12T04:12:45.667Z,79.12
2022-09-12T04:13:45.813Z,77.83
2022-09-12T04:14:45.959Z,77.99
2022-09-12T04:15:46.148Z,79.12
2022-09-12T04:16:46.957Z,78.31
2022-09-12T04:17:46.532Z,79.92
2022-09-12T04:18:46.802Z,78.31
2022-09-12T04:19:46.788Z,79.76
2022-09-12T04:20:47.336Z,77.50
2022-09-12T04:21:47.863Z,75.41
2022-09-12T04:22:47.852Z,77.18
2022-09-12T04:23:47.848Z,80.89
2022-09-12T04:24:47.516Z,77.83
2022-09-12T04:25:47.675Z,78.47
2022-09-12T04:26:47.818Z,77.67
2022-09-12T04:27:47.989Z,78.31
2022-09-12T04:28:48.830Z,77.18
2022-09-12T04:29:48.349Z,78.96
2022-09-12T04:30:48.551Z,77.67
2022-09-12T04:31:48.705Z,78.31
2022-09-12T04:32:48.844Z,79.44
2022-09-12T04:33:49.001Z,78.47
2022-09-12T04:34:49.153Z,75.41
2022-09-12T04:35:49.314Z,78.79
2022-09-12T04:36:49.437Z,78.63
2022-09-12T04:37:49.555Z,82.34
2022-09-12T04:38:49.795Z,80.89
2022-09-12T04:39:50.104Z,80.24
2022-09-12T04:40:50.289Z,78.96
2022-09-12T04:41:50.444Z,79.28
2022-09-12T04:42:51.332Z,81.69
2022-09-12T04:43:51.344Z,77.34
2022-09-12T04:44:50.825Z,78.31
2022-09-12T04:45:51.855Z,77.67
2022-09-12T04:46:51.138Z,79.76
2022-09-12T04:47:51.258Z,78.79
2022-09-12T04:48:56.486Z,78.96
2022-09-12T04:49:54.338Z,78.47
2022-09-12T04:50:51.786Z,79.44
2022-09-12T04:51:52.349Z,79.12
2022-09-12T04:52:52.224Z,78.31
2022-09-12T04:53:52.466Z,81.21
2022-09-12T04:54:53.344Z,79.44
2022-09-12T04:55:52.816Z,79.76
2022-09-12T04:56:53.353Z,79.44
2022-09-12T04:57:53.198Z,79.76
2022-09-12T04:58:53.468Z,80.24
2022-09-12T04:59:54.332Z,83.79
2022-09-12T05:00:54.393Z,79.92
2022-09-12T05:01:54.880Z,78.79
2022-09-12T05:02:54.131Z,79.92
2022-09-12T05:03:54.255Z,78.15
2022-09-12T05:04:54.521Z,78.47
2022-09-12T05:05:56.576Z,79.44
2022-09-12T05:06:55.864Z,84.76
2022-09-12T05:07:55.095Z,79.60
2022-09-12T05:08:55.332Z,78.15
2022-09-12T05:09:55.567Z,78.47
2022-09-12T05:10:55.679Z,79.92
2022-09-12T05:12:04.638Z,80.08
2022-09-12T05:12:58.091Z,79.44
2022-09-12T05:13:56.352Z,79.28
2022-09-12T05:14:57.350Z,84.11
2022-09-12T05:15:56.703Z,76.05
2022-09-12T05:16:56.867Z,78.79
2022-09-12T05:17:56.991Z,81.86
2022-09-12T05:18:57.843Z,80.41
2022-09-12T05:19:57.336Z,78.47
2022-09-12T05:20:57.477Z,79.12
2022-09-12T05:21:57.619Z,79.44
2022-09-12T05:22:58.845Z,77.18
2022-09-12T05:23:58.076Z,78.15
2022-09-12T05:24:58.202Z,80.73
2022-09-12T05:25:58.356Z,81.69
2022-09-12T05:26:58.517Z,77.83
2022-09-12T05:27:58.633Z,80.73
2022-09-12T05:28:59.346Z,78.47
2022-09-12T05:29:58.952Z,80.08
2022-09-12T05:30:59.145Z,80.24
2022-09-12T05:31:59.885Z,75.73
2022-09-12T05:32:59.503Z,79.60
2022-09-12T05:34:00.348Z,79.12
2022-09-12T05:34:59.973Z,78.63
2022-09-12T05:36:00.125Z,76.86
2022-09-12T05:37:00.918Z,77.99
2022-09-12T05:38:00.421Z,78.15
2022-09-12T05:39:00.558Z,78.63
2022-09-12T05:40:00.751Z,78.79
2022-09-12T05:41:00.903Z,77.50
2022-09-12T05:42:01.027Z,77.50
2022-09-12T05:43:01.168Z,79.60
2022-09-12T05:44:01.849Z,76.70
2022-09-12T05:45:01.468Z,77.99
2022-09-12T05:46:01.692Z,83.63
2022-09-12T05:47:02.361Z,77.67
2022-09-12T05:48:01.878Z,77.18
2022-09-12T05:49:02.030Z,79.44
2022-09-12T05:50:02.183Z,80.08
2022-09-12T05:51:02.352Z,77.50
2022-09-12T05:52:03.351Z,77.67
2022-09-12T05:53:02.726Z,80.24
2022-09-12T05:54:02.886Z,77.83
2022-09-12T05:55:04.041Z,79.60
2022-09-12T05:56:03.161Z,78.15
2022-09-12T05:57:03.312Z,75.73
2022-09-12T05:58:03.480Z,77.50
2022-09-12T05:59:04.351Z,78.47
2022-09-12T06:00:03.854Z,77.50
2022-09-12T06:01:04.900Z,83.79
2022-09-12T06:02:04.202Z,77.18
2022-09-12T06:03:04.293Z,80.08
2022-09-12T06:04:04.448Z,77.99
2022-09-12T06:05:04.581Z,78.31
2022-09-12T06:06:05.384Z,78.15
2022-09-12T06:07:04.894Z,78.79
2022-09-12T06:08:05.049Z,78.63
2022-09-12T06:09:05.223Z,79.44
2022-09-12T06:10:05.368Z,77.34
2022-09-12T06:11:05.543Z,78.79
2022-09-12T06:12:05.703Z,77.99
2022-09-12T06:13:06.357Z,80.24
2022-09-12T06:14:05.991Z,79.28
2022-09-12T06:15:06.103Z,78.96
2022-09-12T06:16:06.859Z,79.92
2022-09-12T06:17:06.368Z,77.18
2022-09-12T06:18:06.488Z,79.44
2022-09-12T06:19:07.378Z,77.99
2022-09-12T06:20:06.880Z,78.47
2022-09-12T06:21:07.863Z,77.18
2022-09-12T06:22:07.254Z,81.21
2022-09-12T06:23:07.351Z,78.47
2022-09-12T06:24:07.505Z,79.60
2022-09-12T06:25:08.364Z,78.15
2022-09-12T06:26:08.871Z,78.31
2022-09-12T06:27:08.005Z,78.96
2022-09-12T06:28:08.144Z,77.02
2022-09-12T06:29:08.288Z,77.02
2022-09-12T06:30:09.363Z,78.31
2022-09-12T06:31:08.706Z,81.21
2022-09-12T06:32:08.807Z,76.70
2022-09-12T06:33:08.971Z,78.63
2022-09-12T06:34:09.873Z,77.18
2022-09-12T06:35:09.269Z,78.63
2022-09-12T06:36:12.375Z,78.79
2022-09-12T06:37:10.880Z,76.38
2022-09-12T06:38:09.764Z,76.22
2022-09-12T06:39:09.945Z,78.15
2022-09-12T06:40:10.915Z,78.47
2022-09-12T06:41:10.354Z,76.22
2022-09-12T06:42:10.897Z,76.54
2022-09-12T06:43:11.371Z,79.92
2022-09-12T06:44:10.922Z,79.60
2022-09-12T06:45:11.083Z,77.34
2022-09-12T06:46:11.889Z,79.12
2022-09-12T06:47:12.371Z,79.76
2022-09-12T06:48:11.617Z,80.57
2022-09-12T06:49:11.885Z,78.31
2022-09-12T06:50:12.869Z,77.99
2022-09-12T06:51:12.247Z,78.79
2022-09-12T06:52:12.397Z,79.12
2022-09-12T06:53:12.546Z,76.22
2022-09-12T06:54:12.672Z,76.54
2022-09-12T06:55:16.207Z,79.28
2022-09-12T06:56:15.039Z,75.89
2022-09-12T06:57:13.870Z,81.21
2022-09-12T06:58:13.462Z,78.96
2022-09-12T06:59:14.375Z,76.86
2022-09-12T07:00:13.784Z,79.12
2022-09-12T07:01:13.945Z,80.08
2022-09-12T07:02:14.112Z,75.41
2022-09-12T07:03:14.287Z,79.60
2022-09-12T07:04:14.433Z,81.21
2022-09-12T07:05:14.884Z,75.57
2022-09-12T07:06:14.775Z,77.34
2022-09-12T07:07:14.911Z,75.09
2022-09-12T07:08:15.070Z,78.31
2022-09-12T07:09:15.206Z,73.80
2022-09-12T07:10:18.998Z,75.09
2022-09-12T07:11:17.382Z,77.02
2022-09-12T07:12:16.374Z,78.79
2022-09-12T07:13:15.888Z,74.77
2022-09-12T07:14:16.024Z,76.70
2022-09-12T07:15:16.163Z,77.83
2022-09-12T07:16:19.716Z,75.25
2022-09-12T07:17:18.378Z,79.92
2022-09-12T07:18:16.608Z,76.22
2022-09-12T07:19:16.721Z,77.02
2022-09-12T07:20:16.842Z,76.54
2022-09-12T07:21:17.081Z,77.67
2022-09-12T07:22:17.319Z,72.67
2022-09-12T07:23:17.467Z,75.57
2022-09-12T07:24:17.898Z,77.02
2022-09-12T07:25:17.765Z,75.41
2022-09-12T07:26:17.915Z,73.96
2022-09-12T07:27:18.076Z,76.70
2022-09-12T07:28:18.890Z,81.53
2022-09-12T07:29:35.751Z,76.22
2022-09-12T07:30:20.515Z,77.02
2022-09-12T07:31:19.385Z,76.38
2022-09-12T07:32:18.905Z,80.08
2022-09-12T07:33:19.886Z,76.70
2022-09-12T07:34:19.265Z,76.38
2022-09-12T07:35:19.426Z,80.73
2022-09-12T07:36:19.562Z,76.22
2022-09-12T07:37:19.698Z,75.25
2022-09-12T07:38:19.850Z,76.54
2022-09-12T07:39:20.040Z,75.25
2022-09-12T07:40:20.233Z,78.15
2022-09-12T07:41:20.397Z,75.41
2022-09-12T07:42:20.527Z,78.79
2022-09-12T07:43:20.654Z,78.96
2022-09-12T07:44:20.824Z,77.34
2022-09-12T07:45:21.399Z,74.77
2022-09-12T07:46:21.890Z,77.34
2022-09-12T07:47:21.357Z,77.18
2022-09-12T07:48:21.590Z,75.73
2022-09-12T07:49:21.844Z,76.86
2022-09-12T07:50:21.969Z,78.31
2022-09-12T07:51:22.146Z,76.38
2022-09-12T07:52:22.278Z,75.25
2022-09-12T07:53:22.907Z,77.02
2022-09-12T07:54:22.632Z,77.99
2022-09-12T07:55:22.872Z,77.02
2022-09-12T07:56:28.777Z,77.50
2022-09-12T07:57:25.160Z,76.86
2022-09-12T07:58:23.252Z,72.99
2022-09-12T07:59:48.438Z,76.22
2022-09-12T08:00:25.617Z,76.22
2022-09-12T08:01:24.441Z,77.99
2022-09-12T08:02:24.050Z,77.67
2022-09-12T08:03:24.105Z,76.22
2022-09-12T08:04:24.409Z,77.67
2022-09-12T08:05:25.397Z,75.57
2022-09-12T08:06:24.661Z,76.05
2022-09-12T08:07:25.412Z,73.96
2022-09-12T08:08:24.941Z,78.31
2022-09-12T08:09:25.151Z,80.08
2022-09-12T08:10:25.337Z,77.67
2022-09-12T08:11:26.400Z,77.99
2022-09-12T08:12:26.401Z,78.96
2022-09-12T08:13:25.811Z,77.34
2022-09-12T08:14:26.013Z,77.02
2022-09-12T08:15:26.163Z,76.22
2022-09-12T08:16:26.324Z,76.70
2022-09-12T08:17:26.510Z,81.69
2022-09-12T08:18:26.668Z,77.02
2022-09-12T08:19:26.921Z,76.22
2022-09-12T08:20:28.506Z,80.89
2022-09-12T08:21:28.963Z,77.02
2022-09-12T08:22:27.333Z,79.92
2022-09-12T08:23:28.403Z,75.25
2022-09-12T08:24:27.916Z,77.34
2022-09-12T08:25:27.799Z,82.98
2022-09-12T08:26:27.974Z,76.05
2022-09-12T08:27:29.173Z,75.89
2022-09-12T08:28:28.910Z,76.05
2022-09-12T08:29:28.427Z,81.53
2022-09-12T08:30:28.598Z,75.41
2022-09-12T08:31:28.772Z,78.79
2022-09-12T08:32:28.957Z,76.70
2022-09-12T08:33:29.935Z,75.25
2022-09-12T08:34:29.906Z,78.31
2022-09-12T08:35:29.540Z,80.89
2022-09-12T08:36:29.735Z,80.73
2022-09-12T08:37:29.939Z,76.38
2022-09-12T08:38:30.099Z,81.86
2022-09-12T08:39:30.916Z,76.70
2022-09-12T08:40:30.423Z,77.67
2022-09-12T08:41:31.421Z,78.15
2022-09-12T08:42:30.844Z,76.22
2022-09-12T08:43:30.995Z,76.70
2022-09-12T08:44:31.142Z,75.73
2022-09-12T08:45:31.315Z,75.57
2022-09-12T08:46:31.932Z,77.83
2022-09-12T08:47:31.689Z,77.02
2022-09-12T08:48:31.835Z,78.31
2022-09-12T08:49:32.912Z,77.83
2022-09-12T08:50:32.172Z,80.24
2022-09-12T08:51:32.337Z,77.18
2022-09-12T08:52:32.481Z,77.67
2022-09-12T08:53:32.617Z,76.86
2022-09-12T08:54:32.817Z,76.05
2022-09-12T08:55:33.915Z,78.79
2022-09-12T08:56:33.429Z,77.67
2022-09-12T08:57:33.313Z,79.12
2022-09-12T08:58:33.552Z,78.31
2022-09-12T08:59:33.686Z,75.73
2022-09-12T09:00:33.823Z,75.57
2022-09-12T09:01:34.511Z,75.73
2022-09-12T09:02:34.984Z,76.86
2022-09-12T09:03:35.460Z,76.22
2022-09-12T09:04:34.709Z,79.28
2022-09-12T09:05:34.935Z,77.18
2022-09-12T09:06:35.431Z,79.60
2022-09-12T09:07:35.919Z,82.18
2022-09-12T09:08:35.572Z,76.86
2022-09-12T09:09:35.700Z,80.24
2022-09-12T09:10:35.940Z,76.22
2022-09-12T09:11:36.439Z,77.34
2022-09-12T09:12:36.292Z,78.15
2022-09-12T09:13:36.405Z,76.70
2022-09-12T09:14:36.525Z,76.70
2022-09-12T09:15:36.779Z,75.57
2022-09-12T09:16:36.895Z,75.89
2022-09-12T09:17:37.135Z,77.02
2022-09-12T09:18:37.254Z,76.86
2022-09-12T09:19:37.525Z,77.67
2022-09-12T09:20:38.434Z,76.70
2022-09-12T09:21:37.882Z,76.54
2022-09-12T09:22:38.111Z,75.73
2022-09-12T09:23:38.438Z,75.25
2022-09-12T09:24:39.428Z,78.31
2022-09-12T09:25:38.782Z,82.82
2022-09-12T09:26:39.013Z,78.63
2022-09-12T09:27:41.431Z,75.09
2022-09-12T09:28:40.438Z,78.63
2022-09-12T09:29:40.429Z,76.22
2022-09-12T09:30:39.812Z,81.05
2022-09-12T09:31:39.962Z,74.12
2022-09-12T09:32:40.933Z,75.73
2022-09-12T09:33:40.951Z,79.28
2022-09-12T09:34:40.447Z,75.25
2022-09-12T09:35:40.582Z,76.54
2022-09-12T09:36:41.429Z,74.77
2022-09-12T09:37:41.936Z,77.34
2022-09-12T09:38:41.192Z,74.12
2022-09-12T09:39:41.377Z,78.79
2022-09-12T09:40:41.551Z,78.47
2022-09-12T09:41:41.690Z,77.50
2022-09-12T09:42:41.875Z,78.47
2022-09-12T09:43:42.022Z,77.67
2022-09-12T09:44:42.163Z,81.53
2022-09-12T09:45:44.608Z,76.70
2022-09-12T09:46:44.407Z,81.53
2022-09-12T09:47:42.945Z,75.25
2022-09-12T09:48:42.965Z,77.18
2022-09-12T09:49:43.939Z,75.57
2022-09-12T09:50:43.184Z,76.70
2022-09-12T09:51:43.956Z,76.22
2022-09-12T09:52:43.487Z,75.09
2022-09-12T09:53:44.454Z,77.02
2022-09-12T09:54:43.825Z,77.83
2022-09-12T09:55:43.979Z,74.77
2022-09-12T09:56:44.534Z,77.02
2022-09-12T09:57:44.938Z,76.70
2022-09-12T09:58:44.513Z,80.41
2022-09-12T09:59:45.440Z,75.57
2022-09-12T10:00:44.689Z,77.18
2022-09-12T10:01:45.477Z,78.63
2022-09-12T10:02:45.128Z,79.92
2022-09-12T10:03:45.338Z,76.70
2022-09-12T10:04:45.507Z,76.70
2022-09-12T10:05:46.463Z,75.73
2022-09-12T10:06:46.456Z,74.93
2022-09-12T10:07:46.097Z,75.57
2022-09-12T10:08:46.366Z,75.41
2022-09-12T10:09:46.519Z,76.70
2022-09-12T10:10:47.442Z,79.44
2022-09-12T10:11:46.952Z,74.28
2022-09-12T10:12:46.987Z,75.73
2022-09-12T10:13:48.015Z,78.96
2022-09-12T10:14:47.352Z,76.70
2022-09-12T10:15:47.550Z,76.86
2022-09-12T10:16:47.761Z,73.96
2022-09-12T10:17:47.906Z,78.96
2022-09-12T10:18:48.097Z,74.60
2022-09-12T10:20:04.479Z,76.05
2022-09-12T10:20:50.960Z,77.18
2022-09-12T10:21:48.671Z,79.76
2022-09-12T10:22:48.865Z,76.05
2022-09-12T10:23:49.017Z,73.96
2022-09-12T10:24:49.148Z,74.44
2022-09-12T10:25:49.305Z,76.38
2022-09-12T10:26:53.263Z,76.70
2022-09-12T10:27:50.613Z,73.64
2022-09-12T10:28:49.745Z,75.25
2022-09-12T10:29:49.922Z,78.15
2022-09-12T10:30:50.130Z,74.60
2022-09-12T10:31:50.267Z,76.86
2022-09-12T10:32:50.435Z,75.09
2022-09-12T10:33:50.596Z,74.12
2022-09-12T10:34:50.785Z,76.86
2022-09-12T10:35:51.469Z,74.93
2022-09-12T10:36:51.146Z,74.12
2022-09-12T10:37:52.341Z,75.41
2022-09-12T10:38:52.437Z,75.89
2022-09-12T10:39:52.495Z,74.77
2022-09-12T10:40:51.768Z,76.22
2022-09-12T10:41:51.921Z,78.79
2022-09-12T10:42:52.959Z,78.79
2022-09-12T10:43:52.352Z,75.09
2022-09-12T10:44:52.967Z,76.22
2022-09-12T10:45:52.657Z,76.54
2022-09-12T10:46:52.843Z,76.86
2022-09-12T10:47:53.012Z,75.73
2022-09-12T10:48:53.198Z,75.89
2022-09-12T10:49:53.481Z,78.15
2022-09-12T10:50:53.490Z,78.63
2022-09-12T10:51:54.479Z,79.12
2022-09-12T10:52:54.459Z,77.50
2022-09-12T10:53:54.485Z,78.15
2022-09-12T10:54:54.966Z,75.41
2022-09-12T10:55:55.466Z,74.77
2022-09-12T10:56:55.457Z,73.80
2022-09-12T10:57:54.834Z,79.60
2022-09-12T10:58:55.020Z,73.64
2022-09-12T10:59:55.176Z,73.32
2022-09-12T11:00:55.354Z,77.02
2022-09-12T11:01:56.462Z,75.57
2022-09-12T11:02:56.464Z,78.31
2022-09-12T11:03:55.849Z,77.02
2022-09-12T11:04:56.479Z,73.96
2022-09-12T11:05:56.252Z,77.34
2022-09-12T11:06:56.390Z,74.28
2022-09-12T11:07:57.478Z,75.73
2022-09-12T11:08:56.734Z,76.05
2022-09-12T11:09:56.912Z,76.05
2022-09-12T11:10:57.080Z,76.86
2022-09-12T11:11:57.963Z,77.02
2022-09-12T11:12:57.480Z,77.83
2022-09-12T11:13:57.498Z,78.47
2022-09-12T11:14:58.472Z,79.12
2022-09-12T11:15:57.919Z,73.15
2022-09-12T11:16:58.108Z,75.89
2022-09-12T11:17:58.316Z,77.83
2022-09-12T11:18:58.470Z,76.70
2022-09-12T11:19:59.465Z,73.15
2022-09-12T11:20:58.855Z,76.22
2022-09-12T11:21:59.034Z,76.38
2022-09-12T11:23:00.218Z,79.60
2022-09-12T11:23:59.342Z,75.41
2022-09-12T11:25:00.469Z,76.22
2022-09-12T11:25:59.721Z,79.12
2022-09-12T11:26:59.855Z,75.89
2022-09-12T11:28:00.026Z,74.44
2022-09-12T11:29:00.184Z,78.15
2022-09-12T11:30:00.325Z,75.25
2022-09-12T11:31:00.490Z,75.57
2022-09-12T11:32:01.481Z,83.79
2022-09-12T11:33:00.850Z,74.60
2022-09-12T11:34:01.002Z,73.96
2022-09-12T11:35:01.114Z,75.89
2022-09-12T11:36:01.221Z,74.60
2022-09-12T11:37:01.354Z,81.69
2022-09-12T11:38:01.496Z,81.53
2022-09-12T11:39:01.628Z,78.63
2022-09-12T11:40:01.985Z,72.67
2022-09-12T11:41:02.994Z,73.80
2022-09-12T11:42:02.209Z,81.37
2022-09-12T11:43:02.988Z,75.73
2022-09-12T11:44:02.591Z,75.41
2022-09-12T11:45:03.000Z,75.73
2022-09-12T11:46:02.945Z,76.05
2022-09-12T11:47:04.979Z,74.12
2022-09-12T11:48:03.986Z,74.93
2022-09-12T11:49:05.461Z,76.05
2022-09-12T11:50:04.017Z,73.32
2022-09-12T11:51:03.925Z,75.57
2022-09-12T11:52:04.983Z,76.22
2022-09-12T11:53:04.229Z,75.89
2022-09-12T11:54:04.980Z,74.77
2022-09-12T11:55:05.498Z,77.18
2022-09-12T11:56:04.675Z,73.96
2022-09-12T11:57:04.830Z,79.76
2022-09-12T11:58:05.005Z,75.41
2022-09-12T11:59:05.983Z,81.37
2022-09-12T12:00:05.367Z,73.32
2022-09-12T12:01:06.545Z,74.93
2022-09-12T12:02:05.748Z,74.12
2022-09-12T12:03:05.822Z,76.22
2022-09-12T12:04:05.989Z,78.15
2022-09-12T12:05:06.140Z,73.96
2022-09-12T12:06:06.298Z,74.44
2022-09-12T12:07:06.986Z,78.47
2022-09-12T12:08:06.997Z,78.15
2022-09-12T12:09:07.001Z,75.09
2022-09-12T12:10:06.879Z,76.38
2022-09-12T12:11:07.015Z,76.05
2022-09-12T12:12:07.989Z,75.89
2022-09-12T12:13:11.972Z,72.35
2022-09-12T12:14:09.635Z,74.12
2022-09-12T12:15:07.855Z,81.37
2022-09-12T12:16:08.093Z,78.15
2022-09-12T12:17:08.992Z,73.96
2022-09-12T12:18:08.505Z,76.05
2022-09-12T12:19:10.739Z,76.70
2022-09-12T12:20:10.542Z,73.96
2022-09-12T12:21:09.492Z,76.86
2022-09-12T12:22:09.126Z,74.28
2022-09-12T12:23:10.021Z,76.70
2022-09-12T12:24:09.538Z,72.99
2022-09-12T12:25:09.704Z,75.41
2022-09-12T12:26:09.876Z,75.09
2022-09-12T12:27:10.043Z,73.32
2022-09-12T12:28:11.004Z,72.35
2022-09-12T12:29:11.032Z,74.77
2022-09-12T12:30:10.559Z,75.57
2022-09-12T12:31:11.932Z,73.32
2022-09-12T12:32:10.920Z,73.96
2022-09-12T12:33:11.999Z,73.64
2022-09-12T12:34:11.238Z,76.22
2022-09-12T12:35:12.007Z,76.54
2022-09-12T12:36:12.014Z,75.09
2022-09-12T12:37:11.763Z,73.96
2022-09-12T12:38:11.903Z,78.15
2022-09-12T12:39:13.001Z,74.93
2022-09-12T12:40:12.268Z,73.80
2022-09-12T12:41:13.449Z,72.67
2022-09-12T12:42:15.893Z,76.38
2022-09-12T12:43:15.500Z,76.38
2022-09-12T12:44:12.936Z,80.24
2022-09-12T12:45:13.076Z,74.44
2022-09-12T12:46:13.276Z,75.41
2022-09-12T12:47:13.524Z,76.38
2022-09-12T12:48:13.531Z,74.60
2022-09-12T12:49:13.684Z,75.89
2022-09-12T12:50:13.823Z,75.41
2022-09-12T12:51:13.999Z,77.34
2022-09-12T12:52:14.160Z,74.93
2022-09-12T12:53:15.009Z,77.50
2022-09-12T12:54:14.517Z,75.41